createdAt,value
2023-02-06T00:01:33.339Z,50.20
2023-02-06T00:03:45.892Z,53.80
2023-02-06T00:06:00.231Z,52.30
2023-02-06T00:08:12.846Z,50.80
2023-02-06T00:10:25.435Z,52.40
2023-02-06T00:12:37.938Z,53.90
2023-02-06T00:14:50.507Z,50.70
2023-02-06T00:17:03.127Z,52.10
2023-02-06T00:19:15.690Z,49.00
2023-02-06T00:21:29.708Z,49.40
2023-02-06T00:23:42.380Z,49.40
2023-02-06T00:25:54.887Z,50.60
2023-02-06T00:28:07.444Z,50.10
2023-02-06T00:30:20.212Z,48.60
2023-02-06T00:32:34.776Z,48.70
2023-02-06T00:34:47.399Z,51.60
2023-02-06T00:36:59.958Z,49.60
2023-02-06T00:39:12.454Z,53.50
2023-02-06T00:41:24.984Z,49.30
2023-02-06T00:43:37.706Z,47.60
2023-02-06T00:45:54.551Z,49.90
2023-02-06T00:48:09.128Z,51.20
2023-02-06T00:50:22.007Z,50.00
2023-02-06T00:52:34.676Z,50.60
2023-02-06T00:54:47.201Z,49.20
2023-02-06T00:56:59.736Z,51.20
2023-02-06T00:59:12.272Z,49.30
2023-02-06T01:01:26.352Z,49.80
2023-02-06T01:03:39.062Z,49.60
2023-02-06T01:05:51.889Z,52.50
2023-02-06T01:08:04.756Z,48.50
2023-02-06T01:10:17.599Z,50.10
2023-02-06T01:12:30.236Z,49.50
2023-02-06T01:14:42.790Z,46.70
2023-02-06T01:16:55.414Z,49.40
2023-02-06T01:19:07.930Z,49.40
2023-02-06T01:21:23.287Z,51.80
2023-02-06T01:23:36.863Z,48.90
2023-02-06T01:25:49.422Z,53.30
2023-02-06T01:28:02.037Z,60.50
2023-02-06T01:30:14.681Z,61.60
2023-02-06T01:32:27.268Z,61.40
2023-02-06T01:34:39.840Z,58.50
2023-02-06T01:36:52.460Z,59.30
2023-02-06T01:39:06.553Z,47.10
2023-02-06T01:41:22.395Z,52.10
2023-02-06T01:43:38.539Z,56.60
2023-02-06T01:45:51.474Z,54.30
2023-02-06T01:48:08.868Z,50.10
2023-02-06T01:50:21.967Z,51.60
2023-02-06T01:52:34.920Z,48.70
2023-02-06T01:54:57.483Z,52.50
2023-02-06T01:57:11.886Z,48.20
2023-02-06T01:59:26.054Z,50.50
2023-02-06T02:01:38.826Z,54.30
2023-02-06T02:03:56.105Z,50.20
2023-02-06T02:06:13.630Z,52.10
2023-02-06T02:08:36.646Z,52.20
2023-02-06T02:10:49.150Z,56.80
2023-02-06T02:13:01.760Z,54.10
2023-02-06T02:15:14.423Z,63.70
2023-02-06T02:17:44.105Z,68.70
2023-02-06T02:20:28.015Z,65.80
2023-02-06T02:22:50.967Z,60.70
2023-02-06T02:25:12.662Z,56.10
2023-02-06T02:27:40.582Z,52.40
2023-02-06T02:30:10.556Z,53.40
2023-02-06T02:32:49.984Z,52.20
2023-02-06T02:35:25.747Z,56.00
2023-02-06T02:38:07.590Z,56.80
2023-02-06T02:40:33.138Z,56.40
2023-02-06T02:43:28.662Z,56.70
2023-02-06T02:45:51.319Z,58.20
2023-02-06T02:48:15.140Z,60.50
2023-02-06T02:50:29.350Z,57.10
2023-02-06T02:52:42.343Z,55.90
2023-02-06T02:54:54.879Z,55.60
2023-02-06T02:57:22.734Z,55.50
2023-02-06T02:59:38.750Z,55.10
2023-02-06T03:01:58.844Z,55.10
2023-02-06T03:04:25.732Z,56.30
2023-02-06T03:07:14.831Z,58.60
2023-02-06T03:09:53.632Z,52.50
2023-02-06T03:12:12.746Z,55.00
2023-02-06T03:14:35.426Z,51.80
2023-02-06T03:16:52.300Z,52.90
2023-02-06T03:19:35.757Z,51.60
2023-02-06T03:21:49.901Z,56.20
2023-02-06T03:24:08.972Z,55.90
2023-02-06T03:26:26.160Z,61.50
2023-02-06T03:28:44.267Z,60.40
2023-02-06T03:31:00.033Z,109.20
2023-02-06T03:33:15.514Z,86.30
2023-02-06T03:35:35.933Z,85.80
2023-02-06T03:37:49.695Z,79.70
2023-02-06T03:40:04.349Z,72.00
2023-02-06T03:42:17.627Z,63.10
2023-02-06T03:44:38.005Z,60.70
2023-02-06T03:46:53.845Z,57.30
2023-02-06T03:49:11.035Z,56.50
2023-02-06T03:51:31.042Z,62.20
2023-02-06T03:53:46.045Z,56.20
2023-02-06T03:56:04.294Z,58.60
2023-02-06T03:58:16.923Z,58.40
2023-02-06T04:00:31.986Z,59.00
2023-02-06T04:02:47.584Z,63.10
2023-02-06T04:05:00.501Z,68.10
2023-02-06T04:07:19.942Z,62.60
2023-02-06T04:09:32.581Z,65.50
2023-02-06T04:11:45.096Z,63.30
2023-02-06T04:13:57.719Z,59.50
2023-02-06T04:16:10.294Z,58.90
2023-02-06T04:18:24.040Z,61.80
2023-02-06T04:20:40.796Z,60.80
2023-02-06T04:22:53.457Z,59.40
2023-02-06T04:25:06.473Z,60.30
2023-02-06T04:27:19.076Z,60.00
2023-02-06T04:29:31.824Z,58.30
2023-02-06T04:31:44.428Z,57.90
2023-02-06T04:33:56.980Z,59.70
2023-02-06T04:36:09.616Z,58.90
2023-02-06T04:38:22.186Z,58.10
2023-02-06T04:40:34.735Z,56.10
2023-02-06T04:42:47.348Z,55.60
2023-02-06T04:44:59.930Z,53.10
2023-02-06T04:47:12.798Z,53.70
2023-02-06T04:49:25.326Z,53.80
2023-02-06T04:51:38.614Z,55.80
2023-02-06T04:53:51.125Z,54.20
2023-02-06T04:56:13.702Z,52.40
2023-02-06T04:58:26.279Z,51.60
2023-02-06T05:00:38.908Z,54.30
2023-02-06T05:02:51.606Z,51.10
2023-02-06T05:05:04.498Z,53.00
2023-02-06T05:07:17.149Z,49.50
2023-02-06T05:09:29.701Z,49.10
2023-02-06T05:11:42.353Z,49.80
2023-02-06T05:13:54.827Z,50.20
2023-02-06T05:16:10.324Z,49.10
2023-02-06T05:18:23.064Z,49.00
2023-02-06T05:20:35.807Z,50.50
2023-02-06T05:22:48.319Z,50.30
2023-02-06T05:25:00.866Z,50.40
2023-02-06T05:27:13.776Z,48.80
2023-02-06T05:29:26.314Z,52.00
2023-02-06T05:31:39.025Z,48.50
2023-02-06T05:33:55.054Z,49.90
2023-02-06T05:36:07.950Z,46.60
2023-02-06T05:38:20.624Z,46.10
2023-02-06T05:40:33.152Z,44.40
2023-02-06T05:42:45.657Z,45.10
2023-02-06T05:44:58.185Z,45.30
2023-02-06T05:47:10.771Z,45.00
2023-02-06T05:49:23.313Z,45.70
2023-02-06T05:51:35.915Z,45.20
2023-02-06T05:53:48.524Z,44.80
2023-02-06T05:56:01.108Z,47.80
2023-02-06T05:58:13.675Z,45.60
2023-02-06T06:00:26.311Z,47.50
2023-02-06T06:02:39.094Z,46.70
2023-02-06T06:04:51.805Z,54.90
2023-02-06T06:07:04.426Z,48.30
2023-02-06T06:09:16.987Z,50.60
2023-02-06T06:11:30.402Z,47.50
2023-02-06T06:13:42.934Z,48.00
2023-02-06T06:15:55.466Z,47.00
2023-02-06T06:18:08.124Z,46.40
2023-02-06T06:20:20.736Z,44.80
2023-02-06T06:22:33.481Z,46.30
2023-02-06T06:24:46.000Z,48.60
2023-02-06T06:26:59.660Z,48.80
2023-02-06T06:29:12.238Z,45.60
2023-02-06T06:31:24.859Z,45.40
2023-02-06T06:33:38.971Z,45.40
2023-02-06T06:35:51.431Z,45.60
2023-02-06T06:38:03.917Z,46.90
2023-02-06T06:40:16.693Z,47.30
2023-02-06T06:42:29.469Z,43.10
2023-02-06T06:44:42.109Z,44.90
2023-02-06T06:46:54.627Z,47.80
2023-02-06T06:49:07.176Z,47.70
2023-02-06T06:51:20.112Z,46.70
2023-02-06T06:53:33.184Z,47.30
2023-02-06T06:55:45.981Z,46.70
2023-02-06T06:57:58.928Z,46.60
2023-02-06T07:00:12.658Z,49.10
2023-02-06T07:02:25.349Z,44.20
2023-02-06T07:04:37.900Z,50.00
2023-02-06T07:06:50.412Z,48.30
2023-02-06T07:09:03.522Z,45.30
2023-02-06T07:11:16.970Z,45.10
2023-02-06T07:13:29.527Z,46.30
2023-02-06T07:15:43.191Z,46.70
2023-02-06T07:17:55.902Z,45.80
2023-02-06T07:20:09.068Z,46.60
2023-02-06T07:22:22.012Z,49.10
2023-02-06T07:24:34.561Z,47.00
2023-02-06T07:26:47.142Z,46.80
2023-02-06T07:28:59.716Z,43.80
2023-02-06T07:31:12.282Z,46.90
2023-02-06T07:33:24.937Z,44.10
2023-02-06T07:35:37.645Z,46.50
2023-02-06T07:37:53.456Z,50.70
2023-02-06T07:40:06.505Z,49.30
2023-02-06T07:42:19.137Z,51.40
2023-02-06T07:44:31.682Z,51.10
2023-02-06T07:46:44.846Z,46.50
2023-02-06T07:48:57.726Z,48.20
2023-02-06T07:51:14.255Z,48.40
2023-02-06T07:53:26.780Z,50.30
2023-02-06T07:55:39.426Z,49.40
2023-02-06T07:57:52.023Z,53.20
2023-02-06T08:00:05.396Z,49.50
2023-02-06T08:02:17.986Z,54.90
2023-02-06T08:04:35.276Z,53.00
2023-02-06T08:06:47.922Z,51.00
2023-02-06T08:09:00.534Z,50.60
2023-02-06T08:11:16.008Z,50.50
2023-02-06T08:13:28.558Z,46.80
2023-02-06T08:15:41.477Z,51.60
2023-02-06T08:17:54.081Z,51.90
2023-02-06T08:20:06.805Z,46.90
2023-02-06T08:22:19.408Z,41.80
2023-02-06T08:24:32.019Z,42.40
2023-02-06T08:26:44.609Z,45.10
2023-02-06T08:29:00.633Z,46.30
2023-02-06T08:31:16.567Z,41.40
2023-02-06T08:33:29.225Z,43.30
2023-02-06T08:35:41.797Z,39.20
2023-02-06T08:37:54.301Z,38.90
2023-02-06T08:40:08.335Z,37.70
2023-02-06T08:42:20.845Z,36.60
2023-02-06T08:44:33.819Z,36.60
2023-02-06T08:46:47.636Z,38.60
2023-02-06T08:49:05.935Z,38.30
2023-02-06T08:51:18.772Z,34.90
2023-02-06T08:53:31.975Z,33.40
2023-02-06T08:55:44.501Z,32.90
2023-02-06T08:57:57.000Z,31.40
2023-02-06T09:00:10.136Z,22.50
2023-02-06T09:02:23.271Z,24.80
2023-02-06T09:04:37.666Z,26.40
2023-02-06T09:06:52.437Z,21.10
2023-02-06T09:09:07.029Z,23.70
2023-02-06T09:11:21.400Z,22.90
2023-02-06T09:13:34.105Z,21.70
2023-02-06T09:15:53.608Z,23.20
2023-02-06T09:18:06.167Z,26.90
2023-02-06T09:20:18.812Z,25.50
2023-02-06T09:22:31.599Z,28.90
2023-02-06T09:24:44.090Z,26.40
2023-02-06T09:27:00.135Z,26.80
2023-02-06T09:29:13.649Z,23.10
2023-02-06T09:31:27.971Z,21.90
2023-02-06T09:33:40.620Z,23.40
2023-02-06T09:36:07.733Z,27.50
2023-02-06T09:38:20.251Z,25.80
2023-02-06T09:40:35.024Z,25.40
2023-02-06T09:42:48.267Z,20.30
2023-02-06T09:45:11.873Z,16.80
2023-02-06T09:47:34.088Z,17.00
2023-02-06T09:49:51.407Z,19.40
2023-02-06T09:52:42.415Z,14.30
2023-02-06T09:55:32.648Z,16.20
2023-02-06T09:58:02.274Z,14.90
2023-02-06T10:00:51.462Z,16.80
2023-02-06T10:03:34.329Z,16.10
2023-02-06T10:06:05.268Z,14.90
2023-02-06T10:08:25.870Z,21.20
2023-02-06T10:10:41.930Z,18.60
2023-02-06T10:13:13.130Z,17.90
2023-02-06T10:15:33.120Z,14.30
2023-02-06T10:17:57.660Z,11.30
2023-02-06T10:20:19.655Z,10.60
2023-02-06T10:22:50.051Z,12.60
2023-02-06T10:25:18.047Z,11.20
2023-02-06T10:27:33.630Z,12.50
2023-02-06T10:29:48.035Z,17.40
2023-02-06T10:32:15.914Z,15.50
2023-02-06T10:34:31.197Z,12.80
2023-02-06T10:37:21.184Z,11.70
2023-02-06T10:39:47.765Z,14.90
2023-02-06T10:42:05.175Z,11.70
2023-02-06T10:44:30.730Z,11.50
2023-02-06T10:46:51.272Z,10.80
2023-02-06T10:49:18.996Z,12.60
2023-02-06T10:51:35.340Z,13.70
2023-02-06T10:53:58.139Z,12.60
2023-02-06T10:56:16.560Z,14.20
2023-02-06T10:58:33.465Z,13.30
2023-02-06T11:00:48.630Z,11.90
2023-02-06T11:03:08.103Z,11.50
2023-02-06T11:05:25.095Z,10.90
2023-02-06T11:07:41.403Z,8.90
2023-02-06T11:09:54.207Z,10.90
2023-02-06T11:12:23.474Z,8.30
2023-02-06T11:14:39.895Z,9.00
2023-02-06T11:16:53.206Z,8.50
2023-02-06T11:19:24.130Z,7.20
2023-02-06T11:21:50.927Z,8.50
2023-02-06T11:24:15.050Z,6.80
2023-02-06T11:26:27.690Z,9.00
2023-02-06T11:28:52.363Z,8.30
2023-02-06T11:31:07.628Z,7.30
2023-02-06T11:33:26.002Z,8.60
2023-02-06T11:35:47.500Z,11.10
2023-02-06T11:38:24.393Z,10.10
2023-02-06T11:40:37.163Z,10.60
2023-02-06T11:42:53.021Z,9.90
2023-02-06T11:45:39.587Z,10.70
2023-02-06T11:47:52.468Z,11.20
2023-02-06T11:50:14.302Z,9.60
2023-02-06T11:52:30.745Z,10.70
2023-02-06T11:54:53.936Z,10.90
2023-02-06T11:57:22.088Z,10.20
2023-02-06T11:59:59.852Z,11.20
2023-02-06T12:02:32.058Z,11.10
2023-02-06T12:04:44.736Z,11.00
2023-02-06T12:07:16.202Z,11.40
2023-02-06T12:09:29.093Z,11.50
2023-02-06T12:11:58.963Z,10.00
2023-02-06T12:14:22.785Z,11.50
2023-02-06T12:16:39.605Z,11.00
2023-02-06T12:18:57.254Z,10.70
2023-02-06T12:21:50.458Z,11.90
2023-02-06T12:24:14.073Z,11.10
2023-02-06T12:26:31.840Z,11.00
2023-02-06T12:29:15.640Z,9.60
2023-02-06T12:31:41.464Z,7.70
2023-02-06T12:34:09.792Z,7.50
2023-02-06T12:36:30.127Z,8.70
2023-02-06T12:39:03.869Z,10.30
2023-02-06T12:41:28.586Z,8.90
2023-02-06T12:43:51.965Z,9.30
2023-02-06T12:46:14.152Z,9.90
2023-02-06T12:48:50.245Z,11.40
2023-02-06T12:51:19.451Z,10.30
2023-02-06T12:53:40.571Z,10.80
2023-02-06T12:56:00.767Z,10.30
2023-02-06T12:58:32.184Z,10.60
2023-02-06T13:01:25.791Z,10.90
2023-02-06T13:04:04.245Z,10.20
2023-02-06T13:06:27.462Z,10.60
2023-02-06T13:08:44.984Z,9.90
2023-02-06T13:11:03.613Z,9.50
2023-02-06T13:13:37.763Z,9.80
2023-02-06T13:15:54.870Z,10.30
2023-02-06T13:18:35.316Z,12.00
2023-02-06T13:21:28.409Z,9.60
2023-02-06T13:23:51.982Z,11.90
2023-02-06T13:26:05.142Z,10.40
2023-02-06T13:28:21.441Z,9.50
2023-02-06T13:30:33.981Z,9.60
2023-02-06T13:32:50.129Z,8.90
2023-02-06T13:35:12.560Z,7.30
2023-02-06T13:37:44.478Z,9.20
2023-02-06T13:40:26.457Z,10.00
2023-02-06T13:42:57.344Z,8.70
2023-02-06T13:45:19.882Z,8.10
2023-02-06T13:48:05.228Z,9.10
2023-02-06T13:50:33.736Z,9.50
2023-02-06T13:53:11.799Z,7.70
2023-02-06T13:55:53.399Z,8.30
2023-02-06T13:58:35.683Z,7.80
2023-02-06T14:00:51.086Z,7.70
2023-02-06T14:03:13.701Z,9.70
2023-02-06T14:05:39.078Z,9.90
2023-02-06T14:08:13.090Z,9.10
2023-02-06T14:10:38.960Z,10.00
2023-02-06T14:13:09.669Z,8.30
2023-02-06T14:15:41.233Z,9.60
2023-02-06T14:18:02.749Z,11.00
2023-02-06T14:20:34.605Z,10.60
2023-02-06T14:23:11.989Z,15.60
2023-02-06T14:25:59.107Z,10.10
2023-02-06T14:28:17.811Z,12.20
2023-02-06T14:30:51.725Z,11.20
2023-02-06T14:33:26.719Z,11.10
2023-02-06T14:36:00.688Z,11.70
2023-02-06T14:38:39.657Z,11.20
2023-02-06T14:40:55.053Z,12.20
2023-02-06T14:43:14.920Z,15.80
2023-02-06T14:45:43.385Z,12.40
2023-02-06T14:48:00.259Z,13.90
2023-02-06T14:50:28.243Z,11.50
2023-02-06T14:52:40.806Z,14.10
2023-02-06T14:54:53.434Z,14.50
2023-02-06T14:57:16.417Z,12.50
2023-02-06T14:59:30.644Z,12.50
2023-02-06T15:01:48.391Z,13.70
2023-02-06T15:04:16.880Z,13.60
2023-02-06T15:06:34.022Z,13.50
2023-02-06T15:08:48.543Z,14.00
2023-02-06T15:11:05.301Z,13.50
2023-02-06T15:13:24.044Z,13.40
2023-02-06T15:15:36.887Z,13.10
2023-02-06T15:18:04.638Z,13.20
2023-02-06T15:20:20.269Z,14.70
2023-02-06T15:22:35.285Z,12.80
2023-02-06T15:25:14.228Z,13.70
2023-02-06T15:27:35.709Z,12.30
2023-02-06T15:29:50.224Z,11.60
2023-02-06T15:32:22.362Z,13.30
2023-02-06T15:34:35.390Z,11.60
2023-02-06T15:36:47.992Z,15.00
2023-02-06T15:39:02.385Z,12.10
2023-02-06T15:41:15.582Z,14.10
2023-02-06T15:43:28.746Z,14.00
2023-02-06T15:45:44.035Z,12.70
2023-02-06T15:47:58.547Z,13.40
2023-02-06T15:50:17.708Z,13.60
2023-02-06T15:52:42.906Z,12.20
2023-02-06T15:54:59.896Z,13.40
2023-02-06T15:57:38.467Z,12.60
2023-02-06T15:59:51.264Z,13.90
2023-02-06T16:02:04.316Z,17.60
2023-02-06T16:04:24.093Z,14.10
2023-02-06T16:06:37.506Z,13.60
2023-02-06T16:08:54.011Z,14.90
2023-02-06T16:11:27.787Z,14.70
2023-02-06T16:13:40.963Z,14.30
2023-02-06T16:16:11.530Z,13.60
2023-02-06T16:18:24.163Z,14.20
2023-02-06T16:20:40.985Z,14.40
2023-02-06T16:22:57.226Z,18.60
2023-02-06T16:25:15.324Z,18.10
2023-02-06T16:27:27.984Z,12.70
2023-02-06T16:29:46.716Z,15.90
2023-02-06T16:32:13.234Z,14.10
2023-02-06T16:34:40.611Z,15.10
2023-02-06T16:36:54.362Z,14.80
2023-02-06T16:39:06.914Z,15.10
2023-02-06T16:41:23.934Z,15.70
2023-02-06T16:43:36.615Z,13.90
2023-02-06T16:45:50.008Z,18.30
2023-02-06T16:48:02.577Z,20.20
2023-02-06T16:50:15.850Z,24.60
2023-02-06T16:52:32.502Z,16.50
2023-02-06T16:54:45.490Z,17.60
2023-02-06T16:57:28.041Z,18.70
2023-02-06T16:59:40.589Z,18.80
2023-02-06T17:01:53.146Z,18.40
2023-02-06T17:04:05.798Z,17.90
2023-02-06T17:06:24.979Z,18.10
2023-02-06T17:08:38.617Z,18.90
2023-02-06T17:10:51.763Z,20.40
2023-02-06T17:13:04.312Z,47.80
2023-02-06T17:15:18.543Z,30.50
2023-02-06T17:17:31.187Z,23.00
2023-02-06T17:19:43.792Z,21.90
2023-02-06T17:22:19.566Z,19.60
2023-02-06T17:24:32.347Z,21.40
2023-02-06T17:26:44.895Z,26.50
2023-02-06T17:28:57.447Z,22.40
2023-02-06T17:31:10.610Z,24.70
2023-02-06T17:33:23.270Z,25.70
2023-02-06T17:35:36.805Z,24.40
2023-02-06T17:37:49.628Z,20.20
2023-02-06T17:40:03.056Z,18.50
2023-02-06T17:42:16.442Z,20.40
2023-02-06T17:44:29.194Z,19.60
2023-02-06T17:46:41.787Z,20.40
2023-02-06T17:48:54.362Z,19.80
2023-02-06T17:51:07.144Z,20.10
2023-02-06T17:53:19.984Z,21.10
2023-02-06T17:55:34.645Z,20.30
2023-02-06T17:57:47.628Z,20.80
2023-02-06T18:00:00.459Z,20.00
2023-02-06T18:02:14.555Z,20.30
2023-02-06T18:04:27.639Z,19.40
2023-02-06T18:06:40.439Z,19.60
2023-02-06T18:08:53.178Z,19.30
2023-02-06T18:11:13.068Z,19.60
2023-02-06T18:13:28.296Z,24.40
2023-02-06T18:15:41.028Z,21.50
2023-02-06T18:17:55.111Z,24.30
2023-02-06T18:20:09.163Z,27.40
2023-02-06T18:22:22.504Z,36.10
2023-02-06T18:24:35.969Z,35.00
2023-02-06T18:26:48.576Z,33.20
2023-02-06T18:29:05.437Z,33.80
2023-02-06T18:31:33.494Z,36.00
2023-02-06T18:33:46.096Z,33.50
2023-02-06T18:35:58.856Z,32.30
2023-02-06T18:38:13.774Z,29.30
2023-02-06T18:40:26.318Z,27.90
2023-02-06T18:42:51.097Z,25.80
2023-02-06T18:45:04.385Z,33.00
2023-02-06T18:47:18.784Z,28.80
2023-02-06T18:49:31.313Z,24.80
2023-02-06T18:51:44.138Z,22.20
2023-02-06T18:53:57.724Z,20.90
2023-02-06T18:56:10.537Z,22.70
2023-02-06T18:58:23.384Z,20.90
2023-02-06T19:00:37.791Z,24.30
2023-02-06T19:02:50.625Z,22.20
2023-02-06T19:05:03.228Z,21.50
2023-02-06T19:07:16.779Z,20.90
2023-02-06T19:09:29.585Z,24.80
2023-02-06T19:11:42.666Z,25.00
2023-02-06T19:13:55.359Z,24.40
2023-02-06T19:16:17.516Z,24.90
2023-02-06T19:18:38.719Z,23.00
2023-02-06T19:20:53.947Z,23.40
2023-02-06T19:23:06.534Z,23.20
2023-02-06T19:25:19.954Z,26.10
2023-02-06T19:27:32.768Z,29.70
2023-02-06T19:29:46.305Z,33.40
2023-02-06T19:31:59.273Z,36.50
2023-02-06T19:34:11.914Z,56.60
2023-02-06T19:36:26.151Z,79.70
2023-02-06T19:38:40.050Z,83.20
2023-02-06T19:40:53.714Z,88.10
2023-02-06T19:43:06.284Z,80.80
2023-02-06T19:45:19.052Z,69.10
2023-02-06T19:47:31.695Z,62.70
2023-02-06T19:49:44.295Z,57.40
2023-02-06T19:51:56.800Z,51.70
2023-02-06T19:54:09.427Z,54.80
2023-02-06T19:56:30.507Z,40.00
2023-02-06T19:58:43.808Z,32.00
2023-02-06T20:01:06.595Z,67.80
2023-02-06T20:03:19.342Z,119.00
2023-02-06T20:05:34.715Z,118.60
2023-02-06T20:07:47.219Z,80.00
2023-02-06T20:09:59.952Z,62.70
2023-02-06T20:12:12.811Z,44.40
2023-02-06T20:14:26.783Z,42.50
2023-02-06T20:16:41.372Z,44.30
2023-02-06T20:18:55.869Z,48.60
2023-02-06T20:21:29.367Z,61.60
2023-02-06T20:23:42.777Z,48.00
2023-02-06T20:25:55.703Z,50.90
2023-02-06T20:28:08.319Z,56.80
2023-02-06T20:30:22.050Z,93.50
2023-02-06T20:32:34.819Z,124.30
2023-02-06T20:34:47.896Z,107.30
2023-02-06T20:37:00.904Z,114.50
2023-02-06T20:39:14.487Z,122.90
2023-02-06T20:41:29.740Z,125.10
2023-02-06T20:43:42.514Z,134.60
2023-02-06T20:45:55.361Z,129.40
2023-02-06T20:48:08.143Z,123.90
2023-02-06T20:50:20.924Z,118.50
2023-02-06T20:52:34.839Z,96.20
2023-02-06T20:54:47.475Z,89.10
2023-02-06T20:57:03.101Z,81.80
2023-02-06T20:59:17.615Z,75.80
2023-02-06T21:01:31.066Z,73.50
2023-02-06T21:03:45.243Z,73.30
2023-02-06T21:05:59.004Z,72.20
2023-02-06T21:08:11.790Z,72.90
2023-02-06T21:10:25.575Z,70.50
2023-02-06T21:12:38.228Z,68.40
2023-02-06T21:14:51.086Z,68.90
2023-02-06T21:17:03.898Z,72.80
2023-02-06T21:19:18.144Z,71.70
2023-02-06T21:21:30.960Z,74.10
2023-02-06T21:23:43.880Z,71.30
2023-02-06T21:25:56.640Z,75.80
2023-02-06T21:28:09.525Z,68.10
2023-02-06T21:30:22.088Z,73.40
2023-02-06T21:32:34.676Z,68.90
2023-02-06T21:34:47.434Z,74.70
2023-02-06T21:37:00.022Z,78.20
2023-02-06T21:39:18.737Z,73.10
2023-02-06T21:41:32.486Z,73.00
2023-02-06T21:43:45.707Z,75.00
2023-02-06T21:45:58.410Z,74.40
2023-02-06T21:48:10.974Z,75.50
2023-02-06T21:50:23.550Z,71.80
2023-02-06T21:52:37.203Z,71.50
2023-02-06T21:54:49.795Z,70.10
2023-02-06T21:57:02.342Z,75.50
2023-02-06T21:59:14.908Z,77.70
2023-02-06T22:01:29.861Z,77.10
2023-02-06T22:03:44.091Z,76.60
2023-02-06T22:06:08.278Z,78.20
2023-02-06T22:08:21.073Z,94.20
2023-02-06T22:10:36.908Z,112.60
2023-02-06T22:12:49.963Z,114.90
2023-02-06T22:15:02.598Z,112.30
2023-02-06T22:17:15.154Z,120.80
2023-02-06T22:19:28.069Z,111.40
2023-02-06T22:21:41.424Z,96.00
2023-02-06T22:23:57.636Z,92.90
2023-02-06T22:26:14.083Z,102.70
2023-02-06T22:28:27.323Z,106.80
2023-02-06T22:30:40.939Z,115.70
2023-02-06T22:32:53.549Z,118.00
2023-02-06T22:35:07.228Z,115.10
2023-02-06T22:37:20.207Z,105.30
2023-02-06T22:39:32.810Z,110.40
2023-02-06T22:41:46.081Z,116.10
2023-02-06T22:43:59.046Z,119.40
2023-02-06T22:46:39.090Z,122.90
2023-02-06T22:48:51.926Z,122.90
2023-02-06T22:51:06.504Z,115.80
2023-02-06T22:53:29.252Z,111.60
2023-02-06T22:56:00.480Z,115.80
2023-02-06T22:58:13.218Z,117.50
2023-02-06T23:00:27.867Z,111.30
2023-02-06T23:02:41.304Z,117.50
2023-02-06T23:04:53.991Z,108.80
2023-02-06T23:07:06.575Z,118.60
2023-02-06T23:09:22.521Z,120.70
2023-02-06T23:11:35.679Z,127.80
2023-02-06T23:13:58.547Z,137.20
2023-02-06T23:16:11.977Z,158.80
2023-02-06T23:18:25.714Z,154.70
2023-02-06T23:20:38.284Z,149.90
2023-02-06T23:22:50.818Z,153.80
2023-02-06T23:25:03.660Z,149.70
2023-02-06T23:27:16.195Z,155.20
2023-02-06T23:29:28.940Z,147.70
2023-02-06T23:31:42.131Z,139.30
2023-02-06T23:33:55.203Z,141.00
2023-02-06T23:36:14.144Z,133.10
2023-02-06T23:38:26.788Z,139.00
2023-02-06T23:40:39.513Z,136.90
2023-02-06T23:42:52.133Z,150.50
2023-02-06T23:45:05.101Z,142.00
2023-02-06T23:47:17.727Z,141.30
2023-02-06T23:49:30.232Z,142.60
2023-02-06T23:51:43.041Z,141.00
2023-02-06T23:53:55.621Z,137.40
2023-02-06T23:56:23.759Z,145.60
2023-02-06T23:58:36.352Z,140.00
